sensor_id;sensor_type;location;lat;lon;timestamp;temperature;humidity
44166;DHT22;30476;53.468;9.826;2023-12-14T00:00:12;5.70;99.90
44166;DHT22;30476;53.468;9.826;2023-12-14T00:02:38;5.60;99.90
44166;DHT22;30476;53.468;9.826;2023-12-14T00:05:04;5.70;99.90
44166;DHT22;30476;53.468;9.826;2023-12-14T00:07:30;5.70;99.90
44166;DHT22;30476;53.468;9.826;2023-12-14T00:09:55;5.70;99.90
44166;DHT22;30476;53.468;9.826;2023-12-14T00:12:21;5.70;99.90
44166;DHT22;30476;53.468;9.826;2023-12-14T00:14:47;5.70;99.90
44166;DHT22;30476;53.468;9.826;2023-12-14T00:17:12;5.70;99.90
44166;DHT22;30476;53.468;9.826;2023-12-14T00:19:38;5.70;99.90
44166;DHT22;30476;53.468;9.826;2023-12-14T00:22:04;5.70;99.90
44166;DHT22;30476;53.468;9.826;2023-12-14T00:24:30;5.70;99.90
44166;DHT22;30476;53.468;9.826;2023-12-14T00:26:55;5.70;99.90
44166;DHT22;30476;53.468;9.826;2023-12-14T00:29:21;5.70;99.90
44166;DHT22;30476;53.468;9.826;2023-12-14T00:31:47;5.70;99.90
44166;DHT22;30476;53.468;9.826;2023-12-14T00:34:12;5.70;99.90
44166;DHT22;30476;53.468;9.826;2023-12-14T00:36:38;5.70;99.90
44166;DHT22;30476;53.468;9.826;2023-12-14T00:39:04;5.70;99.90
44166;DHT22;30476;53.468;9.826;2023-12-14T00:41:30;5.70;99.90
44166;DHT22;30476;53.468;9.826;2023-12-14T00:43:56;5.70;99.90
44166;DHT22;30476;53.468;9.826;2023-12-14T00:46:21;5.80;99.90
44166;DHT22;30476;53.468;9.826;2023-12-14T00:48:47;5.80;99.90
44166;DHT22;30476;53.468;9.826;2023-12-14T00:51:13;5.80;99.90
44166;DHT22;30476;53.468;9.826;2023-12-14T00:53:39;5.80;99.90
44166;DHT22;30476;53.468;9.826;2023-12-14T00:56:07;5.80;99.90
44166;DHT22;30476;53.468;9.826;2023-12-14T00:58:33;5.80;99.90
44166;DHT22;30476;53.468;9.826;2023-12-14T01:00:59;5.80;99.90
44166;DHT22;30476;53.468;9.826;2023-12-14T01:03:25;5.80;99.90
44166;DHT22;30476;53.468;9.826;2023-12-14T01:05:51;5.80;99.90
44166;DHT22;30476;53.468;9.826;2023-12-14T01:08:16;5.80;99.90
44166;DHT22;30476;53.468;9.826;2023-12-14T01:10:42;5.80;99.90
44166;DHT22;30476;53.468;9.826;2023-12-14T01:13:08;5.80;99.90
44166;DHT22;30476;53.468;9.826;2023-12-14T01:15:34;5.80;99.90
44166;DHT22;30476;53.468;9.826;2023-12-14T01:18:00;5.90;99.90
44166;DHT22;30476;53.468;9.826;2023-12-14T01:20:26;5.90;99.90
44166;DHT22;30476;53.468;9.826;2023-12-14T01:22:52;5.90;99.90
44166;DHT22;30476;53.468;9.826;2023-12-14T01:25:17;5.90;99.90
44166;DHT22;30476;53.468;9.826;2023-12-14T01:27:43;5.90;99.90
44166;DHT22;30476;53.468;9.826;2023-12-14T01:30:09;5.90;99.90
44166;DHT22;30476;53.468;9.826;2023-12-14T01:32:35;5.90;99.90
44166;DHT22;30476;53.468;9.826;2023-12-14T01:35:01;5.80;99.90
44166;DHT22;30476;53.468;9.826;2023-12-14T01:37:27;5.90;99.90
44166;DHT22;30476;53.468;9.826;2023-12-14T01:39:52;5.90;99.90
44166;DHT22;30476;53.468;9.826;2023-12-14T01:42:18;5.90;99.90
44166;DHT22;30476;53.468;9.826;2023-12-14T01:44:44;5.90;99.90
44166;DHT22;30476;53.468;9.826;2023-12-14T01:47:10;5.90;99.90
44166;DHT22;30476;53.468;9.826;2023-12-14T01:49:36;5.90;99.90
44166;DHT22;30476;53.468;9.826;2023-12-14T01:52:01;5.90;99.90
44166;DHT22;30476;53.468;9.826;2023-12-14T01:54:27;6.00;99.90
44166;DHT22;30476;53.468;9.826;2023-12-14T01:56:53;5.90;99.90
44166;DHT22;30476;53.468;9.826;2023-12-14T01:59:19;5.90;99.90
44166;DHT22;30476;53.468;9.826;2023-12-14T02:01:47;5.90;99.90
44166;DHT22;30476;53.468;9.826;2023-12-14T02:04:17;5.90;99.90
44166;DHT22;30476;53.468;9.826;2023-12-14T02:06:43;6.00;99.90
44166;DHT22;30476;53.468;9.826;2023-12-14T02:09:09;6.00;99.90
44166;DHT22;30476;53.468;9.826;2023-12-14T02:11:36;6.00;99.90
44166;DHT22;30476;53.468;9.826;2023-12-14T02:14:12;6.00;99.90
44166;DHT22;30476;53.468;9.826;2023-12-14T02:16:37;6.00;99.90
44166;DHT22;30476;53.468;9.826;2023-12-14T02:19:06;6.00;99.90
44166;DHT22;30476;53.468;9.826;2023-12-14T02:21:32;6.00;99.90
44166;DHT22;30476;53.468;9.826;2023-12-14T02:23:58;5.90;99.90
44166;DHT22;30476;53.468;9.826;2023-12-14T02:26:24;6.00;99.90
44166;DHT22;30476;53.468;9.826;2023-12-14T02:28:50;5.90;99.90
44166;DHT22;30476;53.468;9.826;2023-12-14T02:31:15;6.00;99.90
44166;DHT22;30476;53.468;9.826;2023-12-14T02:33:41;6.00;99.90
44166;DHT22;30476;53.468;9.826;2023-12-14T02:36:06;5.90;99.90
44166;DHT22;30476;53.468;9.826;2023-12-14T02:38:32;6.00;99.90
44166;DHT22;30476;53.468;9.826;2023-12-14T02:40:58;5.90;99.90
44166;DHT22;30476;53.468;9.826;2023-12-14T02:43:24;5.90;99.90
44166;DHT22;30476;53.468;9.826;2023-12-14T02:45:50;5.90;99.90
44166;DHT22;30476;53.468;9.826;2023-12-14T02:48:16;5.90;99.90
44166;DHT22;30476;53.468;9.826;2023-12-14T02:50:41;6.00;99.90
44166;DHT22;30476;53.468;9.826;2023-12-14T02:53:07;6.00;99.90
44166;DHT22;30476;53.468;9.826;2023-12-14T02:55:33;6.00;99.90
44166;DHT22;30476;53.468;9.826;2023-12-14T02:57:58;6.00;99.90
44166;DHT22;30476;53.468;9.826;2023-12-14T03:00:24;6.00;99.90
44166;DHT22;30476;53.468;9.826;2023-12-14T03:02:50;6.00;99.90
44166;DHT22;30476;53.468;9.826;2023-12-14T03:05:16;6.00;99.90
44166;DHT22;30476;53.468;9.826;2023-12-14T03:07:42;6.00;99.90
44166;DHT22;30476;53.468;9.826;2023-12-14T03:10:08;6.00;99.90
44166;DHT22;30476;53.468;9.826;2023-12-14T03:12:34;6.00;99.90
44166;DHT22;30476;53.468;9.826;2023-12-14T03:14:59;6.00;99.90
44166;DHT22;30476;53.468;9.826;2023-12-14T03:17:25;6.10;99.90
44166;DHT22;30476;53.468;9.826;2023-12-14T03:19:51;6.10;99.90
44166;DHT22;30476;53.468;9.826;2023-12-14T03:22:17;6.10;99.90
44166;DHT22;30476;53.468;9.826;2023-12-14T03:24:42;6.10;99.90
44166;DHT22;30476;53.468;9.826;2023-12-14T03:27:08;6.10;99.90
44166;DHT22;30476;53.468;9.826;2023-12-14T03:29:35;6.10;99.90
44166;DHT22;30476;53.468;9.826;2023-12-14T03:32:01;6.10;99.90
44166;DHT22;30476;53.468;9.826;2023-12-14T03:34:26;6.10;99.90
44166;DHT22;30476;53.468;9.826;2023-12-14T03:36:52;6.10;99.90
44166;DHT22;30476;53.468;9.826;2023-12-14T03:39:17;6.20;99.90
44166;DHT22;30476;53.468;9.826;2023-12-14T03:41:44;6.20;99.90
44166;DHT22;30476;53.468;9.826;2023-12-14T03:44:10;6.20;99.90
44166;DHT22;30476;53.468;9.826;2023-12-14T03:46:36;6.20;99.90
44166;DHT22;30476;53.468;9.826;2023-12-14T03:49:02;6.20;99.90
44166;DHT22;30476;53.468;9.826;2023-12-14T03:51:29;6.20;99.90
44166;DHT22;30476;53.468;9.826;2023-12-14T03:53:55;6.20;99.90
44166;DHT22;30476;53.468;9.826;2023-12-14T03:56:21;6.20;99.90
44166;DHT22;30476;53.468;9.826;2023-12-14T03:58:47;6.10;99.90
44166;DHT22;30476;53.468;9.826;2023-12-14T04:01:19;6.10;99.90
44166;DHT22;30476;53.468;9.826;2023-12-14T04:03:47;6.20;99.90
44166;DHT22;30476;53.468;9.826;2023-12-14T04:06:13;6.20;99.90
44166;DHT22;30476;53.468;9.826;2023-12-14T04:08:42;6.10;99.90
44166;DHT22;30476;53.468;9.826;2023-12-14T04:11:08;6.20;99.90
44166;DHT22;30476;53.468;9.826;2023-12-14T04:13:34;6.20;99.90
44166;DHT22;30476;53.468;9.826;2023-12-14T04:16:00;6.20;99.90
44166;DHT22;30476;53.468;9.826;2023-12-14T04:18:26;6.20;99.90
44166;DHT22;30476;53.468;9.826;2023-12-14T04:20:52;6.10;99.90
44166;DHT22;30476;53.468;9.826;2023-12-14T04:23:18;6.10;99.90
44166;DHT22;30476;53.468;9.826;2023-12-14T04:25:44;6.10;99.90
44166;DHT22;30476;53.468;9.826;2023-12-14T04:28:10;6.10;99.90
44166;DHT22;30476;53.468;9.826;2023-12-14T04:30:36;6.10;99.90
44166;DHT22;30476;53.468;9.826;2023-12-14T04:33:02;6.10;99.90
44166;DHT22;30476;53.468;9.826;2023-12-14T04:35:28;6.10;99.90
44166;DHT22;30476;53.468;9.826;2023-12-14T04:37:54;6.10;99.90
44166;DHT22;30476;53.468;9.826;2023-12-14T04:40:20;6.10;99.90
44166;DHT22;30476;53.468;9.826;2023-12-14T04:42:46;6.10;99.90
44166;DHT22;30476;53.468;9.826;2023-12-14T04:45:11;6.10;99.90
44166;DHT22;30476;53.468;9.826;2023-12-14T04:47:38;6.10;99.90
44166;DHT22;30476;53.468;9.826;2023-12-14T04:50:04;6.10;99.90
44166;DHT22;30476;53.468;9.826;2023-12-14T04:52:30;6.10;99.90
44166;DHT22;30476;53.468;9.826;2023-12-14T04:54:56;6.10;99.90
44166;DHT22;30476;53.468;9.826;2023-12-14T04:57:22;6.10;99.90
44166;DHT22;30476;53.468;9.826;2023-12-14T04:59:47;6.10;99.90
44166;DHT22;30476;53.468;9.826;2023-12-14T05:02:13;6.10;99.90
44166;DHT22;30476;53.468;9.826;2023-12-14T05:04:39;6.00;99.90
44166;DHT22;30476;53.468;9.826;2023-12-14T05:07:05;6.00;99.90
44166;DHT22;30476;53.468;9.826;2023-12-14T05:09:31;6.10;99.90
44166;DHT22;30476;53.468;9.826;2023-12-14T05:11:57;6.10;99.90
44166;DHT22;30476;53.468;9.826;2023-12-14T05:14:22;6.10;99.90
44166;DHT22;30476;53.468;9.826;2023-12-14T05:16:48;6.20;99.90
44166;DHT22;30476;53.468;9.826;2023-12-14T05:19:14;6.10;99.90
44166;DHT22;30476;53.468;9.826;2023-12-14T05:21:40;6.20;99.90
44166;DHT22;30476;53.468;9.826;2023-12-14T05:24:06;6.10;99.90
44166;DHT22;30476;53.468;9.826;2023-12-14T05:26:32;6.10;99.90
44166;DHT22;30476;53.468;9.826;2023-12-14T05:28:57;6.10;99.90
44166;DHT22;30476;53.468;9.826;2023-12-14T05:31:23;6.20;99.90
44166;DHT22;30476;53.468;9.826;2023-12-14T05:33:50;6.20;99.90
44166;DHT22;30476;53.468;9.826;2023-12-14T05:36:15;6.20;99.90
44166;DHT22;30476;53.468;9.826;2023-12-14T05:38:41;6.20;99.90
44166;DHT22;30476;53.468;9.826;2023-12-14T05:41:08;6.20;99.90
44166;DHT22;30476;53.468;9.826;2023-12-14T05:43:34;6.20;99.90
44166;DHT22;30476;53.468;9.826;2023-12-14T05:46:00;6.20;99.90
44166;DHT22;30476;53.468;9.826;2023-12-14T05:48:25;6.20;99.90
44166;DHT22;30476;53.468;9.826;2023-12-14T05:50:54;6.20;99.90
44166;DHT22;30476;53.468;9.826;2023-12-14T05:53:19;6.20;99.90
44166;DHT22;30476;53.468;9.826;2023-12-14T05:55:45;6.20;99.90
44166;DHT22;30476;53.468;9.826;2023-12-14T05:58:10;6.30;99.90
44166;DHT22;30476;53.468;9.826;2023-12-14T06:00:36;6.30;99.90
44166;DHT22;30476;53.468;9.826;2023-12-14T06:03:02;6.20;99.90
44166;DHT22;30476;53.468;9.826;2023-12-14T06:05:28;6.30;99.90
44166;DHT22;30476;53.468;9.826;2023-12-14T06:07:54;6.20;99.90
44166;DHT22;30476;53.468;9.826;2023-12-14T06:10:20;6.20;99.90
44166;DHT22;30476;53.468;9.826;2023-12-14T06:12:47;6.20;99.90
44166;DHT22;30476;53.468;9.826;2023-12-14T06:15:13;6.20;99.90
44166;DHT22;30476;53.468;9.826;2023-12-14T06:17:39;6.20;99.90
44166;DHT22;30476;53.468;9.826;2023-12-14T06:20:06;6.30;99.90
44166;DHT22;30476;53.468;9.826;2023-12-14T06:22:36;6.30;99.90
44166;DHT22;30476;53.468;9.826;2023-12-14T06:25:02;6.30;99.90
44166;DHT22;30476;53.468;9.826;2023-12-14T06:27:29;6.30;99.90
44166;DHT22;30476;53.468;9.826;2023-12-14T06:29:54;6.20;99.90
44166;DHT22;30476;53.468;9.826;2023-12-14T06:32:20;6.30;99.90
44166;DHT22;30476;53.468;9.826;2023-12-14T06:34:46;6.30;99.90
44166;DHT22;30476;53.468;9.826;2023-12-14T06:37:12;6.30;99.90
44166;DHT22;30476;53.468;9.826;2023-12-14T06:39:38;6.30;99.90
44166;DHT22;30476;53.468;9.826;2023-12-14T06:42:04;6.30;99.90
44166;DHT22;30476;53.468;9.826;2023-12-14T06:44:29;6.20;99.90
44166;DHT22;30476;53.468;9.826;2023-12-14T06:46:56;6.30;99.90
44166;DHT22;30476;53.468;9.826;2023-12-14T06:49:24;6.20;99.90
44166;DHT22;30476;53.468;9.826;2023-12-14T06:51:50;6.20;99.90
44166;DHT22;30476;53.468;9.826;2023-12-14T06:54:16;6.20;99.90
44166;DHT22;30476;53.468;9.826;2023-12-14T06:56:41;6.20;99.90
44166;DHT22;30476;53.468;9.826;2023-12-14T06:59:07;6.20;99.90
44166;DHT22;30476;53.468;9.826;2023-12-14T07:01:34;6.20;99.90
44166;DHT22;30476;53.468;9.826;2023-12-14T07:03:59;6.20;99.90
44166;DHT22;30476;53.468;9.826;2023-12-14T07:06:25;6.20;99.90
44166;DHT22;30476;53.468;9.826;2023-12-14T07:08:51;6.20;99.90
44166;DHT22;30476;53.468;9.826;2023-12-14T07:11:16;6.20;99.90
44166;DHT22;30476;53.468;9.826;2023-12-14T07:13:42;6.20;99.90
44166;DHT22;30476;53.468;9.826;2023-12-14T07:16:10;6.10;99.90
44166;DHT22;30476;53.468;9.826;2023-12-14T07:18:40;6.10;99.90
44166;DHT22;30476;53.468;9.826;2023-12-14T07:21:06;6.10;99.90
44166;DHT22;30476;53.468;9.826;2023-12-14T07:23:32;6.10;99.90
44166;DHT22;30476;53.468;9.826;2023-12-14T07:25:58;6.10;99.90
44166;DHT22;30476;53.468;9.826;2023-12-14T07:28:24;6.10;99.90
44166;DHT22;30476;53.468;9.826;2023-12-14T07:30:50;6.10;99.90
44166;DHT22;30476;53.468;9.826;2023-12-14T07:33:15;6.10;99.90
44166;DHT22;30476;53.468;9.826;2023-12-14T07:35:41;6.10;99.90
44166;DHT22;30476;53.468;9.826;2023-12-14T07:38:09;6.10;99.90
44166;DHT22;30476;53.468;9.826;2023-12-14T07:40:35;6.10;99.90
44166;DHT22;30476;53.468;9.826;2023-12-14T07:43:00;6.10;99.90
44166;DHT22;30476;53.468;9.826;2023-12-14T07:45:26;6.10;99.90
44166;DHT22;30476;53.468;9.826;2023-12-14T07:47:52;6.10;99.90
44166;DHT22;30476;53.468;9.826;2023-12-14T07:50:18;6.10;99.90
44166;DHT22;30476;53.468;9.826;2023-12-14T07:52:44;6.10;99.90
44166;DHT22;30476;53.468;9.826;2023-12-14T07:55:10;6.10;99.90
44166;DHT22;30476;53.468;9.826;2023-12-14T07:57:36;6.10;99.90
44166;DHT22;30476;53.468;9.826;2023-12-14T08:00:02;6.20;99.90
44166;DHT22;30476;53.468;9.826;2023-12-14T08:02:29;6.20;99.90
44166;DHT22;30476;53.468;9.826;2023-12-14T08:04:55;6.30;99.90
44166;DHT22;30476;53.468;9.826;2023-12-14T08:07:20;6.30;99.90
44166;DHT22;30476;53.468;9.826;2023-12-14T08:09:46;6.30;99.90
44166;DHT22;30476;53.468;9.826;2023-12-14T08:12:11;6.30;99.90
44166;DHT22;30476;53.468;9.826;2023-12-14T08:14:37;6.30;99.90
44166;DHT22;30476;53.468;9.826;2023-12-14T08:17:06;6.40;99.90
44166;DHT22;30476;53.468;9.826;2023-12-14T08:19:32;6.40;99.90
44166;DHT22;30476;53.468;9.826;2023-12-14T08:21:58;6.40;99.90
44166;DHT22;30476;53.468;9.826;2023-12-14T08:24:23;6.40;99.90
44166;DHT22;30476;53.468;9.826;2023-12-14T08:26:49;6.40;99.90
44166;DHT22;30476;53.468;9.826;2023-12-14T08:29:15;6.40;99.90
44166;DHT22;30476;53.468;9.826;2023-12-14T08:31:41;6.40;99.90
44166;DHT22;30476;53.468;9.826;2023-12-14T08:34:06;6.50;99.90
44166;DHT22;30476;53.468;9.826;2023-12-14T08:36:32;6.40;99.90
44166;DHT22;30476;53.468;9.826;2023-12-14T08:38:58;6.40;99.90
44166;DHT22;30476;53.468;9.826;2023-12-14T08:41:24;6.40;99.90
44166;DHT22;30476;53.468;9.826;2023-12-14T08:43:49;6.40;99.90
44166;DHT22;30476;53.468;9.826;2023-12-14T08:46:15;6.40;99.90
44166;DHT22;30476;53.468;9.826;2023-12-14T08:48:41;6.50;99.90
44166;DHT22;30476;53.468;9.826;2023-12-14T08:51:07;6.50;99.90
44166;DHT22;30476;53.468;9.826;2023-12-14T08:53:33;6.60;99.90
44166;DHT22;30476;53.468;9.826;2023-12-14T08:55:58;6.70;99.90
44166;DHT22;30476;53.468;9.826;2023-12-14T08:58:24;6.80;99.90
44166;DHT22;30476;53.468;9.826;2023-12-14T09:00:50;6.80;99.90
44166;DHT22;30476;53.468;9.826;2023-12-14T09:03:19;6.80;99.90
44166;DHT22;30476;53.468;9.826;2023-12-14T09:05:45;6.90;99.90
44166;DHT22;30476;53.468;9.826;2023-12-14T09:08:11;7.00;99.90
44166;DHT22;30476;53.468;9.826;2023-12-14T09:10:38;7.00;99.90
44166;DHT22;30476;53.468;9.826;2023-12-14T09:13:04;7.00;99.90
44166;DHT22;30476;53.468;9.826;2023-12-14T09:15:31;7.10;99.90
44166;DHT22;30476;53.468;9.826;2023-12-14T09:17:57;7.10;99.90
44166;DHT22;30476;53.468;9.826;2023-12-14T09:20:23;7.10;99.90
44166;DHT22;30476;53.468;9.826;2023-12-14T09:22:48;7.10;99.90
44166;DHT22;30476;53.468;9.826;2023-12-14T09:25:14;7.10;99.90
44166;DHT22;30476;53.468;9.826;2023-12-14T09:27:41;7.10;99.90
44166;DHT22;30476;53.468;9.826;2023-12-14T09:30:07;7.10;99.90
44166;DHT22;30476;53.468;9.826;2023-12-14T09:32:33;7.20;99.90
44166;DHT22;30476;53.468;9.826;2023-12-14T09:34:59;7.20;99.90
44166;DHT22;30476;53.468;9.826;2023-12-14T09:37:25;7.20;99.90
44166;DHT22;30476;53.468;9.826;2023-12-14T09:39:51;7.20;99.90
44166;DHT22;30476;53.468;9.826;2023-12-14T09:42:18;7.20;99.90
44166;DHT22;30476;53.468;9.826;2023-12-14T09:44:47;7.30;99.90
44166;DHT22;30476;53.468;9.826;2023-12-14T09:47:13;7.20;99.90
44166;DHT22;30476;53.468;9.826;2023-12-14T09:49:41;7.20;99.90
44166;DHT22;30476;53.468;9.826;2023-12-14T09:52:09;7.30;99.90
44166;DHT22;30476;53.468;9.826;2023-12-14T09:54:35;7.30;99.90
44166;DHT22;30476;53.468;9.826;2023-12-14T09:57:00;7.30;99.90
44166;DHT22;30476;53.468;9.826;2023-12-14T09:59:26;7.20;99.90
44166;DHT22;30476;53.468;9.826;2023-12-14T10:01:52;7.30;99.90
44166;DHT22;30476;53.468;9.826;2023-12-14T10:04:19;7.30;99.90
44166;DHT22;30476;53.468;9.826;2023-12-14T10:06:47;7.30;99.90
44166;DHT22;30476;53.468;9.826;2023-12-14T10:09:13;7.30;99.90
44166;DHT22;30476;53.468;9.826;2023-12-14T10:11:42;7.30;99.90
44166;DHT22;30476;53.468;9.826;2023-12-14T10:16:44;7.40;99.90
44166;DHT22;30476;53.468;9.826;2023-12-14T10:19:09;7.40;99.90
44166;DHT22;30476;53.468;9.826;2023-12-14T10:21:35;7.40;99.90
44166;DHT22;30476;53.468;9.826;2023-12-14T10:24:01;7.40;99.90
44166;DHT22;30476;53.468;9.826;2023-12-14T10:29:50;7.30;99.90
44166;DHT22;30476;53.468;9.826;2023-12-14T10:32:17;7.40;99.90
44166;DHT22;30476;53.468;9.826;2023-12-14T10:34:44;7.30;99.90
44166;DHT22;30476;53.468;9.826;2023-12-14T10:37:10;7.30;99.90
44166;DHT22;30476;53.468;9.826;2023-12-14T10:39:38;7.30;99.90
44166;DHT22;30476;53.468;9.826;2023-12-14T10:42:08;7.30;99.90
44166;DHT22;30476;53.468;9.826;2023-12-14T10:44:36;7.30;99.90
44166;DHT22;30476;53.468;9.826;2023-12-14T10:47:03;7.20;99.90
44166;DHT22;30476;53.468;9.826;2023-12-14T10:49:30;7.20;99.90
44166;DHT22;30476;53.468;9.826;2023-12-14T10:51:58;7.20;99.90
44166;DHT22;30476;53.468;9.826;2023-12-14T10:54:25;7.20;99.90
44166;DHT22;30476;53.468;9.826;2023-12-14T10:56:55;7.20;99.90
44166;DHT22;30476;53.468;9.826;2023-12-14T10:59:23;7.20;99.90
44166;DHT22;30476;53.468;9.826;2023-12-14T11:01:53;7.20;99.90
44166;DHT22;30476;53.468;9.826;2023-12-14T11:04:21;7.20;99.90
44166;DHT22;30476;53.468;9.826;2023-12-14T11:06:47;7.20;99.90
44166;DHT22;30476;53.468;9.826;2023-12-14T11:09:17;7.20;99.90
44166;DHT22;30476;53.468;9.826;2023-12-14T11:12:19;7.20;99.90
44166;DHT22;30476;53.468;9.826;2023-12-14T11:14:38;7.20;99.90
44166;DHT22;30476;53.468;9.826;2023-12-14T11:17:09;7.20;99.90
44166;DHT22;30476;53.468;9.826;2023-12-14T11:19:35;7.20;99.90
44166;DHT22;30476;53.468;9.826;2023-12-14T11:24:35;7.20;99.90
44166;DHT22;30476;53.468;9.826;2023-12-14T11:27:07;7.20;99.90
44166;DHT22;30476;53.468;9.826;2023-12-14T11:29:33;7.20;99.90
44166;DHT22;30476;53.468;9.826;2023-12-14T11:32:01;7.30;99.90
44166;DHT22;30476;53.468;9.826;2023-12-14T11:34:27;7.20;99.90
44166;DHT22;30476;53.468;9.826;2023-12-14T11:36:54;7.20;99.90
44166;DHT22;30476;53.468;9.826;2023-12-14T11:39:20;7.30;99.90
44166;DHT22;30476;53.468;9.826;2023-12-14T11:42:03;7.20;99.90
44166;DHT22;30476;53.468;9.826;2023-12-14T11:44:30;7.20;99.90
44166;DHT22;30476;53.468;9.826;2023-12-14T11:46:58;7.20;99.90
44166;DHT22;30476;53.468;9.826;2023-12-14T11:49:27;7.20;99.90
44166;DHT22;30476;53.468;9.826;2023-12-14T11:51:55;7.20;99.90
44166;DHT22;30476;53.468;9.826;2023-12-14T11:54:21;7.20;99.90
44166;DHT22;30476;53.468;9.826;2023-12-14T11:56:47;7.20;99.90
44166;DHT22;30476;53.468;9.826;2023-12-14T11:59:15;7.20;99.90
44166;DHT22;30476;53.468;9.826;2023-12-14T12:01:59;7.20;99.90
44166;DHT22;30476;53.468;9.826;2023-12-14T12:04:27;7.20;99.90
44166;DHT22;30476;53.468;9.826;2023-12-14T12:07:05;7.20;99.90
44166;DHT22;30476;53.468;9.826;2023-12-14T12:09:36;7.20;99.90
44166;DHT22;30476;53.468;9.826;2023-12-14T12:12:05;7.20;99.90
44166;DHT22;30476;53.468;9.826;2023-12-14T12:14:31;7.20;99.90
44166;DHT22;30476;53.468;9.826;2023-12-14T12:16:57;7.20;99.90
44166;DHT22;30476;53.468;9.826;2023-12-14T12:19:23;7.20;99.90
44166;DHT22;30476;53.468;9.826;2023-12-14T12:21:49;7.20;99.90
44166;DHT22;30476;53.468;9.826;2023-12-14T12:24:15;7.20;99.90
44166;DHT22;30476;53.468;9.826;2023-12-14T12:26:40;7.20;99.90
44166;DHT22;30476;53.468;9.826;2023-12-14T12:29:06;7.20;99.90
44166;DHT22;30476;53.468;9.826;2023-12-14T12:31:32;7.20;99.90
44166;DHT22;30476;53.468;9.826;2023-12-14T12:34:00;7.30;99.90
44166;DHT22;30476;53.468;9.826;2023-12-14T12:36:25;7.30;99.90
44166;DHT22;30476;53.468;9.826;2023-12-14T12:38:52;7.30;99.90
44166;DHT22;30476;53.468;9.826;2023-12-14T12:41:18;7.30;99.90
44166;DHT22;30476;53.468;9.826;2023-12-14T12:43:44;7.30;99.90
44166;DHT22;30476;53.468;9.826;2023-12-14T12:46:10;7.30;99.90
44166;DHT22;30476;53.468;9.826;2023-12-14T12:48:36;7.30;99.90
44166;DHT22;30476;53.468;9.826;2023-12-14T12:54:24;7.30;99.90
44166;DHT22;30476;53.468;9.826;2023-12-14T12:56:50;7.30;99.90
44166;DHT22;30476;53.468;9.826;2023-12-14T12:59:15;7.30;99.90
44166;DHT22;30476;53.468;9.826;2023-12-14T13:01:42;7.30;99.90
44166;DHT22;30476;53.468;9.826;2023-12-14T13:04:20;7.30;99.90
44166;DHT22;30476;53.468;9.826;2023-12-14T13:06:49;7.30;99.90
44166;DHT22;30476;53.468;9.826;2023-12-14T13:09:15;7.30;99.90
44166;DHT22;30476;53.468;9.826;2023-12-14T13:11:45;7.30;99.90
44166;DHT22;30476;53.468;9.826;2023-12-14T13:14:11;7.30;99.90
44166;DHT22;30476;53.468;9.826;2023-12-14T13:16:38;7.30;99.90
44166;DHT22;30476;53.468;9.826;2023-12-14T13:19:04;7.30;99.90
44166;DHT22;30476;53.468;9.826;2023-12-14T13:21:32;7.20;99.90
44166;DHT22;30476;53.468;9.826;2023-12-14T13:23:59;7.20;99.90
44166;DHT22;30476;53.468;9.826;2023-12-14T13:26:25;7.20;99.90
44166;DHT22;30476;53.468;9.826;2023-12-14T13:28:52;7.10;99.90
44166;DHT22;30476;53.468;9.826;2023-12-14T13:31:18;7.10;99.90
44166;DHT22;30476;53.468;9.826;2023-12-14T13:33:46;7.10;99.90
44166;DHT22;30476;53.468;9.826;2023-12-14T13:36:12;7.10;99.90
44166;DHT22;30476;53.468;9.826;2023-12-14T13:38:38;7.10;99.90
44166;DHT22;30476;53.468;9.826;2023-12-14T13:41:04;7.00;99.90
44166;DHT22;30476;53.468;9.826;2023-12-14T13:43:30;7.00;99.90
44166;DHT22;30476;53.468;9.826;2023-12-14T13:45:55;7.00;99.90
44166;DHT22;30476;53.468;9.826;2023-12-14T13:48:25;7.00;99.90
44166;DHT22;30476;53.468;9.826;2023-12-14T13:50:52;7.00;99.90
44166;DHT22;30476;53.468;9.826;2023-12-14T13:53:18;7.00;99.90
44166;DHT22;30476;53.468;9.826;2023-12-14T13:55:43;7.00;99.90
44166;DHT22;30476;53.468;9.826;2023-12-14T13:58:09;7.00;99.90
44166;DHT22;30476;53.468;9.826;2023-12-14T14:00:35;7.00;99.90
44166;DHT22;30476;53.468;9.826;2023-12-14T14:03:02;7.00;99.90
44166;DHT22;30476;53.468;9.826;2023-12-14T14:05:29;7.00;99.90
44166;DHT22;30476;53.468;9.826;2023-12-14T14:07:55;7.00;99.90
44166;DHT22;30476;53.468;9.826;2023-12-14T14:10:21;7.00;99.90
44166;DHT22;30476;53.468;9.826;2023-12-14T14:12:47;7.00;99.90
44166;DHT22;30476;53.468;9.826;2023-12-14T14:15:13;7.00;99.90
44166;DHT22;30476;53.468;9.826;2023-12-14T14:17:39;6.90;99.90
44166;DHT22;30476;53.468;9.826;2023-12-14T14:20:05;6.90;99.90
44166;DHT22;30476;53.468;9.826;2023-12-14T14:22:32;6.90;99.90
44166;DHT22;30476;53.468;9.826;2023-12-14T14:24:59;6.90;99.90
44166;DHT22;30476;53.468;9.826;2023-12-14T14:27:25;6.80;99.90
44166;DHT22;30476;53.468;9.826;2023-12-14T14:29:51;6.90;99.90
44166;DHT22;30476;53.468;9.826;2023-12-14T14:32:21;6.90;99.90
44166;DHT22;30476;53.468;9.826;2023-12-14T14:34:47;6.90;99.90
44166;DHT22;30476;53.468;9.826;2023-12-14T14:37:13;7.00;99.90
44166;DHT22;30476;53.468;9.826;2023-12-14T14:39:39;7.00;99.90
44166;DHT22;30476;53.468;9.826;2023-12-14T14:42:09;7.00;99.90
44166;DHT22;30476;53.468;9.826;2023-12-14T14:44:35;7.00;99.90
44166;DHT22;30476;53.468;9.826;2023-12-14T14:47:02;7.10;99.90
44166;DHT22;30476;53.468;9.826;2023-12-14T14:49:28;7.10;99.90
44166;DHT22;30476;53.468;9.826;2023-12-14T14:51:53;7.10;99.90
44166;DHT22;30476;53.468;9.826;2023-12-14T14:54:19;7.00;99.90
44166;DHT22;30476;53.468;9.826;2023-12-14T14:56:44;7.10;99.90
44166;DHT22;30476;53.468;9.826;2023-12-14T14:59:10;7.10;99.90
44166;DHT22;30476;53.468;9.826;2023-12-14T15:01:37;7.10;99.90
44166;DHT22;30476;53.468;9.826;2023-12-14T15:04:03;7.10;99.90
44166;DHT22;30476;53.468;9.826;2023-12-14T15:06:29;7.10;99.90
44166;DHT22;30476;53.468;9.826;2023-12-14T15:08:55;7.10;99.90
44166;DHT22;30476;53.468;9.826;2023-12-14T15:11:20;7.10;99.90
44166;DHT22;30476;53.468;9.826;2023-12-14T15:13:46;7.00;99.90
44166;DHT22;30476;53.468;9.826;2023-12-14T15:16:12;7.10;99.90
44166;DHT22;30476;53.468;9.826;2023-12-14T15:18:38;7.00;99.90
44166;DHT22;30476;53.468;9.826;2023-12-14T15:21:10;7.00;99.90
44166;DHT22;30476;53.468;9.826;2023-12-14T15:23:37;7.00;99.90
44166;DHT22;30476;53.468;9.826;2023-12-14T15:26:03;7.00;99.90
44166;DHT22;30476;53.468;9.826;2023-12-14T15:28:30;6.90;99.90
44166;DHT22;30476;53.468;9.826;2023-12-14T15:30:56;7.00;99.90
44166;DHT22;30476;53.468;9.826;2023-12-14T15:33:22;6.90;99.90
44166;DHT22;30476;53.468;9.826;2023-12-14T15:35:48;6.90;99.90
44166;DHT22;30476;53.468;9.826;2023-12-14T15:38:14;6.80;99.90
44166;DHT22;30476;53.468;9.826;2023-12-14T15:40:40;6.80;99.90
44166;DHT22;30476;53.468;9.826;2023-12-14T15:43:06;6.80;99.90
44166;DHT22;30476;53.468;9.826;2023-12-14T15:45:32;6.70;99.90
44166;DHT22;30476;53.468;9.826;2023-12-14T15:48:00;6.70;99.90
44166;DHT22;30476;53.468;9.826;2023-12-14T15:50:26;6.60;99.90